createdAt,value
2022-12-08T00:01:16.553Z,-0.37
2022-12-08T00:03:43.315Z,-0.36
2022-12-08T00:06:40.333Z,-0.43
2022-12-08T00:09:22.091Z,-0.42
2022-12-08T00:11:54.034Z,-0.33
2022-12-08T00:14:22.842Z,-0.34
2022-12-08T00:16:49.044Z,-0.31
2022-12-08T00:19:15.213Z,-0.33
2022-12-08T00:21:41.349Z,-0.33
2022-12-08T00:24:07.740Z,-0.31
2022-12-08T00:26:33.850Z,-0.34
2022-12-08T00:29:00.478Z,-0.35
2022-12-08T00:31:26.644Z,-0.36
2022-12-08T00:33:52.798Z,-0.36
2022-12-08T00:36:18.956Z,-0.35
2022-12-08T00:38:47.220Z,-0.29
2022-12-08T00:41:39.969Z,-0.38
2022-12-08T00:44:08.223Z,-0.42
2022-12-08T00:46:34.395Z,-0.35
2022-12-08T00:49:00.639Z,-0.31
2022-12-08T00:51:26.755Z,-0.24
2022-12-08T00:53:52.887Z,-0.21
2022-12-08T00:56:19.010Z,-0.18
2022-12-08T00:58:45.133Z,-0.08
2022-12-08T01:01:12.632Z,-0.06
2022-12-08T01:03:38.827Z,-0.02
2022-12-08T01:06:05.945Z,-0.02
2022-12-08T01:08:32.903Z,0.03
2022-12-08T01:11:14.161Z,0.04
2022-12-08T01:13:40.630Z,0.07
2022-12-08T01:16:06.776Z,0.10
2022-12-08T01:18:33.573Z,0.14
2022-12-08T01:21:07.261Z,0.21
2022-12-08T01:23:34.431Z,0.23
2022-12-08T01:26:08.522Z,0.20
2022-12-08T01:28:34.650Z,0.26
2022-12-08T01:31:01.915Z,0.28
2022-12-08T01:33:29.664Z,0.33
2022-12-08T01:35:56.375Z,0.33
2022-12-08T01:38:22.868Z,0.32
2022-12-08T01:40:49.446Z,0.35
2022-12-08T01:43:20.954Z,0.38
2022-12-08T01:45:47.810Z,0.42
2022-12-08T01:48:27.246Z,0.46
2022-12-08T01:50:55.653Z,0.46
2022-12-08T01:53:30.289Z,0.48
2022-12-08T01:56:00.473Z,0.56
2022-12-08T01:58:36.219Z,0.61
2022-12-08T02:01:02.552Z,0.60
2022-12-08T02:03:34.146Z,0.62
2022-12-08T02:06:00.261Z,0.65
2022-12-08T02:08:27.982Z,0.67
2022-12-08T02:10:54.118Z,0.73
2022-12-08T02:13:22.380Z,0.72
2022-12-08T02:16:10.216Z,0.73
2022-12-08T02:19:29.587Z,0.81
2022-12-08T02:22:09.945Z,0.78
2022-12-08T02:25:15.336Z,0.82
2022-12-08T02:27:56.268Z,0.83
2022-12-08T02:30:41.831Z,0.82
2022-12-08T02:33:38.232Z,0.83
2022-12-08T02:36:19.838Z,0.84
2022-12-08T02:38:56.308Z,0.88
2022-12-08T02:42:01.494Z,0.91
2022-12-08T02:44:37.398Z,0.93
2022-12-08T02:47:10.240Z,0.95
2022-12-08T02:49:36.580Z,0.98
2022-12-08T02:52:12.426Z,0.98
2022-12-08T02:54:50.557Z,1.02
2022-12-08T02:57:38.392Z,1.05
2022-12-08T03:00:11.359Z,1.09
2022-12-08T03:02:43.603Z,1.09
2022-12-08T03:05:44.472Z,1.07
2022-12-08T03:08:17.179Z,1.05
2022-12-08T03:10:52.456Z,1.06
2022-12-08T03:13:28.302Z,1.06
2022-12-08T03:15:55.855Z,1.06
2022-12-08T03:18:27.628Z,1.05
2022-12-08T03:20:53.780Z,1.07
2022-12-08T03:23:22.195Z,1.07
2022-12-08T03:26:08.578Z,1.07
2022-12-08T03:28:34.970Z,1.05
2022-12-08T03:31:06.377Z,1.06
2022-12-08T03:33:37.608Z,1.05
2022-12-08T03:36:07.798Z,1.06
2022-12-08T03:38:41.449Z,1.08
2022-12-08T03:41:19.871Z,1.10
2022-12-08T03:43:53.388Z,1.10
2022-12-08T03:48:46.926Z,1.09
2022-12-08T03:51:13.192Z,1.10
2022-12-08T03:53:39.319Z,1.10
2022-12-08T03:56:13.827Z,1.12
2022-12-08T03:58:39.971Z,1.14
2022-12-08T04:01:06.089Z,1.11
